sensor_id;sensor_type;location;lat;lon;timestamp;temperature;humidity
21759;DHT22;11041;50.854;20.580;2022-12-17T00:01:56;-2.30;99.90
21759;DHT22;11041;50.854;20.580;2022-12-17T00:04:41;-2.30;99.90
21759;DHT22;11041;50.854;20.580;2022-12-17T00:07:30;-2.30;99.90
21759;DHT22;11041;50.854;20.580;2022-12-17T00:10:15;-2.40;99.90
21759;DHT22;11041;50.854;20.580;2022-12-17T00:13:00;-2.40;99.90
21759;DHT22;11041;50.854;20.580;2022-12-17T00:15:52;-2.40;99.90
21759;DHT22;11041;50.854;20.580;2022-12-17T00:18:36;-2.30;99.90
21759;DHT22;11041;50.854;20.580;2022-12-17T00:21:21;-2.40;99.90
21759;DHT22;11041;50.854;20.580;2022-12-17T00:24:06;-2.30;99.90
21759;DHT22;11041;50.854;20.580;2022-12-17T00:26:51;-2.40;99.90
21759;DHT22;11041;50.854;20.580;2022-12-17T00:29:36;-2.40;99.90
21759;DHT22;11041;50.854;20.580;2022-12-17T00:32:21;-2.40;99.90
21759;DHT22;11041;50.854;20.580;2022-12-17T00:35:06;-2.40;99.90
21759;DHT22;11041;50.854;20.580;2022-12-17T00:37:51;-2.40;99.90
21759;DHT22;11041;50.854;20.580;2022-12-17T00:40:36;-2.40;99.90
21759;DHT22;11041;50.854;20.580;2022-12-17T00:43:29;-2.40;99.90
21759;DHT22;11041;50.854;20.580;2022-12-17T00:46:15;-2.50;99.90
21759;DHT22;11041;50.854;20.580;2022-12-17T00:48:59;-2.50;99.90
21759;DHT22;11041;50.854;20.580;2022-12-17T00:51:44;-2.50;99.90
21759;DHT22;11041;50.854;20.580;2022-12-17T00:54:29;-2.50;99.90
21759;DHT22;11041;50.854;20.580;2022-12-17T00:57:14;-2.50;99.90
21759;DHT22;11041;50.854;20.580;2022-12-17T00:59:59;-2.50;99.90
21759;DHT22;11041;50.854;20.580;2022-12-17T01:02:44;-2.50;99.90
21759;DHT22;11041;50.854;20.580;2022-12-17T01:05:29;-2.50;99.90
21759;DHT22;11041;50.854;20.580;2022-12-17T01:08:14;-2.50;99.90
21759;DHT22;11041;50.854;20.580;2022-12-17T01:11:05;-2.50;99.90
21759;DHT22;11041;50.854;20.580;2022-12-17T01:13:52;-2.50;99.90
21759;DHT22;11041;50.854;20.580;2022-12-17T01:16:37;-2.50;99.90
21759;DHT22;11041;50.854;20.580;2022-12-17T01:19:22;-2.50;99.90
21759;DHT22;11041;50.854;20.580;2022-12-17T01:22:07;-2.60;99.90
21759;DHT22;11041;50.854;20.580;2022-12-17T01:24:52;-2.60;99.90
21759;DHT22;11041;50.854;20.580;2022-12-17T01:27:37;-2.60;99.90
21759;DHT22;11041;50.854;20.580;2022-12-17T01:30:21;-2.60;99.90
21759;DHT22;11041;50.854;20.580;2022-12-17T01:33:08;-2.60;99.90
21759;DHT22;11041;50.854;20.580;2022-12-17T01:35:55;-2.60;99.90
21759;DHT22;11041;50.854;20.580;2022-12-17T01:38:41;-2.60;99.90
21759;DHT22;11041;50.854;20.580;2022-12-17T01:41:26;-2.70;99.90
21759;DHT22;11041;50.854;20.580;2022-12-17T01:50:51;-2.60;99.90
21759;DHT22;11041;50.854;20.580;2022-12-17T01:53:45;-2.60;99.90
21759;DHT22;11041;50.854;20.580;2022-12-17T01:56:34;-2.60;99.90
21759;DHT22;11041;50.854;20.580;2022-12-17T01:59:28;-2.70;99.90
21759;DHT22;11041;50.854;20.580;2022-12-17T02:02:26;-2.70;99.90
21759;DHT22;11041;50.854;20.580;2022-12-17T02:06:13;-2.70;99.90
21759;DHT22;11041;50.854;20.580;2022-12-17T02:09:35;-2.60;99.90
21759;DHT22;11041;50.854;20.580;2022-12-17T02:12:31;-2.60;99.90
21759;DHT22;11041;50.854;20.580;2022-12-17T02:15:34;-2.60;99.90
21759;DHT22;11041;50.854;20.580;2022-12-17T02:18:59;-2.70;99.90
21759;DHT22;11041;50.854;20.580;2022-12-17T02:22:13;-2.60;99.90
21759;DHT22;11041;50.854;20.580;2022-12-17T02:25:34;-2.60;99.90
21759;DHT22;11041;50.854;20.580;2022-12-17T02:28:20;-2.70;99.90
21759;DHT22;11041;50.854;20.580;2022-12-17T02:31:06;-2.60;99.90
21759;DHT22;11041;50.854;20.580;2022-12-17T02:33:52;-2.60;99.90
21759;DHT22;11041;50.854;20.580;2022-12-17T02:36:39;-2.60;99.90
21759;DHT22;11041;50.854;20.580;2022-12-17T02:39:24;-2.60;99.90
21759;DHT22;11041;50.854;20.580;2022-12-17T02:42:11;-2.60;99.90
21759;DHT22;11041;50.854;20.580;2022-12-17T02:44:57;-2.60;99.90
21759;DHT22;11041;50.854;20.580;2022-12-17T02:47:47;-2.60;99.90
21759;DHT22;11041;50.854;20.580;2022-12-17T02:50:36;-2.60;99.90
21759;DHT22;11041;50.854;20.580;2022-12-17T02:53:32;-2.60;99.90
21759;DHT22;11041;50.854;20.580;2022-12-17T02:56:17;-2.60;99.90
21759;DHT22;11041;50.854;20.580;2022-12-17T02:59:02;-2.60;99.90
21759;DHT22;11041;50.854;20.580;2022-12-17T03:01:48;-2.60;99.90
21759;DHT22;11041;50.854;20.580;2022-12-17T03:04:33;-2.60;99.90
21759;DHT22;11041;50.854;20.580;2022-12-17T03:07:22;-2.60;99.90
21759;DHT22;11041;50.854;20.580;2022-12-17T03:10:10;-2.70;99.90
21759;DHT22;11041;50.854;20.580;2022-12-17T03:12:55;-2.60;99.90
21759;DHT22;11041;50.854;20.580;2022-12-17T03:15:40;-2.60;99.90
21759;DHT22;11041;50.854;20.580;2022-12-17T03:18:26;-2.60;99.90
21759;DHT22;11041;50.854;20.580;2022-12-17T03:21:11;-2.60;99.90
21759;DHT22;11041;50.854;20.580;2022-12-17T03:27:47;-2.40;99.90
21759;DHT22;11041;50.854;20.580;2022-12-17T03:31:23;-2.40;99.90
21759;DHT22;11041;50.854;20.580;2022-12-17T03:38:48;-2.10;99.90
21759;DHT22;11041;50.854;20.580;2022-12-17T03:46:04;-1.80;99.90
21759;DHT22;11041;50.854;20.580;2022-12-17T03:49:39;-1.80;99.90
21759;DHT22;11041;50.854;20.580;2022-12-17T03:52:51;-1.90;99.90
21759;DHT22;11041;50.854;20.580;2022-12-17T03:56:03;-2.00;99.90
21759;DHT22;11041;50.854;20.580;2022-12-17T03:58:48;-2.10;99.90
21759;DHT22;11041;50.854;20.580;2022-12-17T04:01:34;-2.00;99.90
21759;DHT22;11041;50.854;20.580;2022-12-17T04:04:19;-2.00;99.90
21759;DHT22;11041;50.854;20.580;2022-12-17T04:07:03;-2.00;99.90
21759;DHT22;11041;50.854;20.580;2022-12-17T04:09:48;-2.00;99.90
21759;DHT22;11041;50.854;20.580;2022-12-17T04:12:33;-2.00;99.90
21759;DHT22;11041;50.854;20.580;2022-12-17T04:15:18;-2.10;99.90
21759;DHT22;11041;50.854;20.580;2022-12-17T04:18:03;-2.20;99.90
21759;DHT22;11041;50.854;20.580;2022-12-17T04:20:48;-2.30;99.90
21759;DHT22;11041;50.854;20.580;2022-12-17T04:23:33;-2.30;99.90
21759;DHT22;11041;50.854;20.580;2022-12-17T04:26:17;-2.30;99.90
21759;DHT22;11041;50.854;20.580;2022-12-17T04:29:03;-2.30;99.90
21759;DHT22;11041;50.854;20.580;2022-12-17T04:31:48;-2.30;99.90
21759;DHT22;11041;50.854;20.580;2022-12-17T04:34:33;-2.40;99.90
21759;DHT22;11041;50.854;20.580;2022-12-17T04:37:18;-2.40;99.90
21759;DHT22;11041;50.854;20.580;2022-12-17T04:40:04;-2.40;99.90
21759;DHT22;11041;50.854;20.580;2022-12-17T04:42:49;-2.50;99.90
21759;DHT22;11041;50.854;20.580;2022-12-17T04:45:34;-2.40;99.90
21759;DHT22;11041;50.854;20.580;2022-12-17T04:48:19;-2.40;99.90
21759;DHT22;11041;50.854;20.580;2022-12-17T04:51:04;-2.40;99.90
21759;DHT22;11041;50.854;20.580;2022-12-17T04:53:49;-2.40;99.90
21759;DHT22;11041;50.854;20.580;2022-12-17T04:56:35;-2.50;99.90
21759;DHT22;11041;50.854;20.580;2022-12-17T04:59:19;-2.50;99.90
21759;DHT22;11041;50.854;20.580;2022-12-17T05:02:04;-2.30;99.90
21759;DHT22;11041;50.854;20.580;2022-12-17T05:04:49;-2.30;99.90
21759;DHT22;11041;50.854;20.580;2022-12-17T05:07:34;-2.40;99.90
21759;DHT22;11041;50.854;20.580;2022-12-17T05:10:20;-2.40;99.90
21759;DHT22;11041;50.854;20.580;2022-12-17T05:13:05;-2.40;99.90
21759;DHT22;11041;50.854;20.580;2022-12-17T05:15:55;-2.40;99.90
21759;DHT22;11041;50.854;20.580;2022-12-17T05:18:41;-2.40;99.90
21759;DHT22;11041;50.854;20.580;2022-12-17T05:21:26;-2.40;99.90
21759;DHT22;11041;50.854;20.580;2022-12-17T05:24:11;-2.30;99.90
21759;DHT22;11041;50.854;20.580;2022-12-17T05:26:56;-2.40;99.90
21759;DHT22;11041;50.854;20.580;2022-12-17T05:29:41;-2.30;99.90
21759;DHT22;11041;50.854;20.580;2022-12-17T05:32:25;-2.30;99.90
21759;DHT22;11041;50.854;20.580;2022-12-17T05:35:10;-2.30;99.90
21759;DHT22;11041;50.854;20.580;2022-12-17T05:38:02;-2.30;99.90
21759;DHT22;11041;50.854;20.580;2022-12-17T05:40:50;-2.40;99.90
21759;DHT22;11041;50.854;20.580;2022-12-17T05:43:36;-2.30;99.90
21759;DHT22;11041;50.854;20.580;2022-12-17T05:46:22;-2.30;99.90
21759;DHT22;11041;50.854;20.580;2022-12-17T05:49:07;-2.40;99.90
21759;DHT22;11041;50.854;20.580;2022-12-17T05:51:53;-2.40;99.90
21759;DHT22;11041;50.854;20.580;2022-12-17T05:54:39;-2.40;99.90
21759;DHT22;11041;50.854;20.580;2022-12-17T05:57:24;-2.40;99.90
21759;DHT22;11041;50.854;20.580;2022-12-17T06:00:10;-2.40;99.90
21759;DHT22;11041;50.854;20.580;2022-12-17T06:03:01;-2.30;99.90
21759;DHT22;11041;50.854;20.580;2022-12-17T06:05:52;-2.50;99.90
21759;DHT22;11041;50.854;20.580;2022-12-17T06:08:39;-2.50;99.90
21759;DHT22;11041;50.854;20.580;2022-12-17T06:11:23;-2.50;99.90
21759;DHT22;11041;50.854;20.580;2022-12-17T06:14:09;-2.60;99.90
21759;DHT22;11041;50.854;20.580;2022-12-17T06:16:54;-2.60;99.90
21759;DHT22;11041;50.854;20.580;2022-12-17T06:19:39;-2.70;99.90
21759;DHT22;11041;50.854;20.580;2022-12-17T06:22:24;-2.60;99.90
21759;DHT22;11041;50.854;20.580;2022-12-17T06:25:09;-2.60;99.90
21759;DHT22;11041;50.854;20.580;2022-12-17T06:27:59;-2.60;99.90
21759;DHT22;11041;50.854;20.580;2022-12-17T06:30:52;-2.60;99.90
21759;DHT22;11041;50.854;20.580;2022-12-17T06:33:38;-2.60;99.90
21759;DHT22;11041;50.854;20.580;2022-12-17T06:36:24;-2.60;99.90
21759;DHT22;11041;50.854;20.580;2022-12-17T06:39:09;-2.60;99.90
21759;DHT22;11041;50.854;20.580;2022-12-17T06:41:54;-2.60;99.90
21759;DHT22;11041;50.854;20.580;2022-12-17T06:44:39;-2.60;99.90
21759;DHT22;11041;50.854;20.580;2022-12-17T06:47:25;-2.60;99.90
21759;DHT22;11041;50.854;20.580;2022-12-17T06:50:10;-2.60;99.90
21759;DHT22;11041;50.854;20.580;2022-12-17T06:53:04;-2.60;99.90
21759;DHT22;11041;50.854;20.580;2022-12-17T06:55:50;-2.50;99.90
21759;DHT22;11041;50.854;20.580;2022-12-17T06:58:36;-2.60;99.90
21759;DHT22;11041;50.854;20.580;2022-12-17T07:01:22;-2.60;99.90
21759;DHT22;11041;50.854;20.580;2022-12-17T07:04:08;-2.70;99.90
21759;DHT22;11041;50.854;20.580;2022-12-17T07:06:52;-2.70;99.90
21759;DHT22;11041;50.854;20.580;2022-12-17T07:09:38;-2.70;99.90
21759;DHT22;11041;50.854;20.580;2022-12-17T07:12:22;-2.60;99.90
21759;DHT22;11041;50.854;20.580;2022-12-17T07:15:08;-2.60;99.90
21759;DHT22;11041;50.854;20.580;2022-12-17T07:18:00;-2.50;99.90
21759;DHT22;11041;50.854;20.580;2022-12-17T07:20:52;-2.50;99.90
21759;DHT22;11041;50.854;20.580;2022-12-17T07:23:37;-2.40;99.90
21759;DHT22;11041;50.854;20.580;2022-12-17T07:26:24;-2.40;99.90
21759;DHT22;11041;50.854;20.580;2022-12-17T07:29:10;-2.30;99.90
21759;DHT22;11041;50.854;20.580;2022-12-17T07:31:54;-2.30;99.90
21759;DHT22;11041;50.854;20.580;2022-12-17T07:34:40;-2.20;99.90
21759;DHT22;11041;50.854;20.580;2022-12-17T07:37:25;-2.30;99.90
21759;DHT22;11041;50.854;20.580;2022-12-17T07:40:10;-2.40;99.90
21759;DHT22;11041;50.854;20.580;2022-12-17T07:42:56;-2.40;99.90
21759;DHT22;11041;50.854;20.580;2022-12-17T07:45:41;-2.40;99.90
21759;DHT22;11041;50.854;20.580;2022-12-17T07:48:26;-2.40;99.90
21759;DHT22;11041;50.854;20.580;2022-12-17T07:51:11;-2.20;99.90
21759;DHT22;11041;50.854;20.580;2022-12-17T07:53:56;-2.30;99.90
21759;DHT22;11041;50.854;20.580;2022-12-17T07:56:41;-2.20;99.90
21759;DHT22;11041;50.854;20.580;2022-12-17T07:59:26;-2.30;99.90
21759;DHT22;11041;50.854;20.580;2022-12-17T08:02:11;-2.40;99.90
21759;DHT22;11041;50.854;20.580;2022-12-17T08:04:56;-2.20;99.90
21759;DHT22;11041;50.854;20.580;2022-12-17T08:07:41;-2.10;99.90
21759;DHT22;11041;50.854;20.580;2022-12-17T08:14:26;-2.30;99.90
21759;DHT22;11041;50.854;20.580;2022-12-17T08:17:11;-2.20;99.90
21759;DHT22;11041;50.854;20.580;2022-12-17T08:19:56;-2.20;99.90
21759;DHT22;11041;50.854;20.580;2022-12-17T08:22:42;-2.20;99.90
21759;DHT22;11041;50.854;20.580;2022-12-17T08:25:27;-2.30;99.90
21759;DHT22;11041;50.854;20.580;2022-12-17T08:28:12;-2.30;99.90
21759;DHT22;11041;50.854;20.580;2022-12-17T08:30:57;-2.30;99.90
21759;DHT22;11041;50.854;20.580;2022-12-17T08:33:43;-2.30;99.90
21759;DHT22;11041;50.854;20.580;2022-12-17T08:36:28;-2.30;99.90
21759;DHT22;11041;50.854;20.580;2022-12-17T08:39:13;-2.50;99.90
21759;DHT22;11041;50.854;20.580;2022-12-17T08:41:58;-2.50;99.90
21759;DHT22;11041;50.854;20.580;2022-12-17T08:45:12;-2.50;99.90
21759;DHT22;11041;50.854;20.580;2022-12-17T08:48:04;-2.60;99.90
21759;DHT22;11041;50.854;20.580;2022-12-17T08:50:52;-2.50;99.90
21759;DHT22;11041;50.854;20.580;2022-12-17T08:53:37;-2.60;99.90
21759;DHT22;11041;50.854;20.580;2022-12-17T08:56:22;-2.40;99.90
21759;DHT22;11041;50.854;20.580;2022-12-17T08:59:07;-2.60;99.90
21759;DHT22;11041;50.854;20.580;2022-12-17T09:01:52;-2.50;99.90
21759;DHT22;11041;50.854;20.580;2022-12-17T09:04:37;-2.50;99.90
21759;DHT22;11041;50.854;20.580;2022-12-17T09:07:22;-2.40;99.90
21759;DHT22;11041;50.854;20.580;2022-12-17T09:10:08;-2.50;99.90
21759;DHT22;11041;50.854;20.580;2022-12-17T09:12:54;-2.40;99.90
21759;DHT22;11041;50.854;20.580;2022-12-17T09:15:39;-2.40;99.90
21759;DHT22;11041;50.854;20.580;2022-12-17T09:18:24;-2.30;99.90
21759;DHT22;11041;50.854;20.580;2022-12-17T09:21:09;-2.40;99.90
21759;DHT22;11041;50.854;20.580;2022-12-17T09:23:55;-2.40;99.90
21759;DHT22;11041;50.854;20.580;2022-12-17T09:26:40;-2.30;99.90
21759;DHT22;11041;50.854;20.580;2022-12-17T09:29:25;-2.30;99.90
21759;DHT22;11041;50.854;20.580;2022-12-17T09:32:09;-2.20;99.90
21759;DHT22;11041;50.854;20.580;2022-12-17T09:34:55;-2.20;99.90
21759;DHT22;11041;50.854;20.580;2022-12-17T09:37:40;-2.20;99.90
21759;DHT22;11041;50.854;20.580;2022-12-17T09:40:25;-2.30;99.90
21759;DHT22;11041;50.854;20.580;2022-12-17T09:43:46;-2.30;99.90
21759;DHT22;11041;50.854;20.580;2022-12-17T09:49:42;-2.50;99.90
21759;DHT22;11041;50.854;20.580;2022-12-17T09:52:32;-2.50;99.90
21759;DHT22;11041;50.854;20.580;2022-12-17T09:55:27;-2.50;99.90
21759;DHT22;11041;50.854;20.580;2022-12-17T09:58:25;-2.50;99.90
21759;DHT22;11041;50.854;20.580;2022-12-17T10:01:17;-2.50;99.90
21759;DHT22;11041;50.854;20.580;2022-12-17T10:04:34;-2.50;99.90
21759;DHT22;11041;50.854;20.580;2022-12-17T10:07:27;-2.50;99.90
21759;DHT22;11041;50.854;20.580;2022-12-17T10:10:24;-2.40;99.90
21759;DHT22;11041;50.854;20.580;2022-12-17T10:13:19;-2.50;99.90
21759;DHT22;11041;50.854;20.580;2022-12-17T10:16:26;-2.50;99.90
21759;DHT22;11041;50.854;20.580;2022-12-17T10:19:35;-2.60;99.90
21759;DHT22;11041;50.854;20.580;2022-12-17T10:22:23;-2.60;99.90
21759;DHT22;11041;50.854;20.580;2022-12-17T10:25:19;-2.70;99.90
21759;DHT22;11041;50.854;20.580;2022-12-17T10:28:17;-2.60;99.90
21759;DHT22;11041;50.854;20.580;2022-12-17T10:31:15;-2.50;99.90
21759;DHT22;11041;50.854;20.580;2022-12-17T10:34:18;-2.50;99.90
21759;DHT22;11041;50.854;20.580;2022-12-17T10:37:05;-2.40;99.90
21759;DHT22;11041;50.854;20.580;2022-12-17T10:40:10;-2.50;99.90
21759;DHT22;11041;50.854;20.580;2022-12-17T10:43:32;-2.50;99.90
21759;DHT22;11041;50.854;20.580;2022-12-17T10:46:24;-0.60;99.90
21759;DHT22;11041;50.854;20.580;2022-12-17T10:52:44;-2.40;99.90
21759;DHT22;11041;50.854;20.580;2022-12-17T10:55:32;-2.40;99.90
21759;DHT22;11041;50.854;20.580;2022-12-17T10:58:22;-2.50;99.90
21759;DHT22;11041;50.854;20.580;2022-12-17T11:01:12;-2.40;99.90
21759;DHT22;11041;50.854;20.580;2022-12-17T11:04:30;-2.60;99.90
21759;DHT22;11041;50.854;20.580;2022-12-17T11:07:30;-2.60;99.90
21759;DHT22;11041;50.854;20.580;2022-12-17T11:10:23;-2.50;99.90
21759;DHT22;11041;50.854;20.580;2022-12-17T11:13:16;-2.60;99.90
21759;DHT22;11041;50.854;20.580;2022-12-17T11:16:26;-2.70;99.90
21759;DHT22;11041;50.854;20.580;2022-12-17T11:19:29;-2.70;99.90
21759;DHT22;11041;50.854;20.580;2022-12-17T11:28:47;-2.80;99.90
21759;DHT22;11041;50.854;20.580;2022-12-17T11:31:57;-3.00;99.90
21759;DHT22;11041;50.854;20.580;2022-12-17T11:35:29;-3.00;99.90
21759;DHT22;11041;50.854;20.580;2022-12-17T11:39:16;-3.00;99.90
21759;DHT22;11041;50.854;20.580;2022-12-17T11:43:04;-3.00;99.90
21759;DHT22;11041;50.854;20.580;2022-12-17T11:49:29;-3.10;99.90
21759;DHT22;11041;50.854;20.580;2022-12-17T11:58:51;-3.40;99.90
21759;DHT22;11041;50.854;20.580;2022-12-17T12:08:36;-3.40;99.90
21759;DHT22;11041;50.854;20.580;2022-12-17T12:18:36;-3.30;99.90
21759;DHT22;11041;50.854;20.580;2022-12-17T12:34:34;-3.20;99.90
21759;DHT22;11041;50.854;20.580;2022-12-17T12:37:22;-3.10;99.90
21759;DHT22;11041;50.854;20.580;2022-12-17T12:40:30;-3.00;99.90
21759;DHT22;11041;50.854;20.580;2022-12-17T12:43:39;-3.00;99.90
21759;DHT22;11041;50.854;20.580;2022-12-17T12:46:51;-3.00;99.90
21759;DHT22;11041;50.854;20.580;2022-12-17T12:53:34;-2.90;99.90
21759;DHT22;11041;50.854;20.580;2022-12-17T12:56:33;-3.00;99.90
21759;DHT22;11041;50.854;20.580;2022-12-17T12:59:38;-3.10;99.90
21759;DHT22;11041;50.854;20.580;2022-12-17T13:02:28;-3.00;99.90
21759;DHT22;11041;50.854;20.580;2022-12-17T13:05:30;-3.10;99.90
21759;DHT22;11041;50.854;20.580;2022-12-17T13:08:24;-2.90;99.90
21759;DHT22;11041;50.854;20.580;2022-12-17T13:10:51;-3.00;99.90
21759;DHT22;11041;50.854;20.580;2022-12-17T13:13:33;-3.00;99.90
21759;DHT22;11041;50.854;20.580;2022-12-17T13:16:35;-3.00;99.90
21759;DHT22;11041;50.854;20.580;2022-12-17T13:24:43;-3.10;99.90
21759;DHT22;11041;50.854;20.580;2022-12-17T13:27:30;-3.10;99.90
21759;DHT22;11041;50.854;20.580;2022-12-17T13:30:43;-3.10;99.90
21759;DHT22;11041;50.854;20.580;2022-12-17T13:36:43;-3.00;99.90
21759;DHT22;11041;50.854;20.580;2022-12-17T13:40:03;-3.10;99.90
21759;DHT22;11041;50.854;20.580;2022-12-17T13:42:45;-3.10;99.90
21759;DHT22;11041;50.854;20.580;2022-12-17T13:45:18;-3.10;99.90
21759;DHT22;11041;50.854;20.580;2022-12-17T13:47:56;-3.20;99.90
21759;DHT22;11041;50.854;20.580;2022-12-17T13:50:26;-3.20;99.90
21759;DHT22;11041;50.854;20.580;2022-12-17T13:52:55;-3.20;99.90
21759;DHT22;11041;50.854;20.580;2022-12-17T13:55:24;-3.20;99.90
21759;DHT22;11041;50.854;20.580;2022-12-17T13:57:53;-3.30;99.90
21759;DHT22;11041;50.854;20.580;2022-12-17T14:00:22;-3.20;99.90
21759;DHT22;11041;50.854;20.580;2022-12-17T14:02:54;-3.20;99.90
21759;DHT22;11041;50.854;20.580;2022-12-17T14:05:26;-3.10;99.90
21759;DHT22;11041;50.854;20.580;2022-12-17T14:08:01;-3.00;99.90
21759;DHT22;11041;50.854;20.580;2022-12-17T14:10:29;-3.10;99.90
21759;DHT22;11041;50.854;20.580;2022-12-17T14:13:15;-3.10;99.90
21759;DHT22;11041;50.854;20.580;2022-12-17T14:15:49;-3.10;99.90
21759;DHT22;11041;50.854;20.580;2022-12-17T14:18:19;-3.10;99.90
21759;DHT22;11041;50.854;20.580;2022-12-17T14:20:48;-3.10;99.90
21759;DHT22;11041;50.854;20.580;2022-12-17T14:23:28;-3.20;99.90
21759;DHT22;11041;50.854;20.580;2022-12-17T14:25:57;-3.20;99.90
21759;DHT22;11041;50.854;20.580;2022-12-17T14:28:35;-3.30;99.90
21759;DHT22;11041;50.854;20.580;2022-12-17T14:31:28;-3.30;99.90
21759;DHT22;11041;50.854;20.580;2022-12-17T14:34:11;-3.30;99.90
21759;DHT22;11041;50.854;20.580;2022-12-17T14:36:43;-4.00;99.90
21759;DHT22;11041;50.854;20.580;2022-12-17T14:39:24;-3.30;99.90
21759;DHT22;11041;50.854;20.580;2022-12-17T14:45:05;-3.20;99.90
21759;DHT22;11041;50.854;20.580;2022-12-17T14:48:23;-3.10;99.90
21759;DHT22;11041;50.854;20.580;2022-12-17T15:03:42;-2.80;99.90
21759;DHT22;11041;50.854;20.580;2022-12-17T15:06:16;-2.70;99.90
21759;DHT22;11041;50.854;20.580;2022-12-17T15:08:47;-2.80;99.90
21759;DHT22;11041;50.854;20.580;2022-12-17T15:11:17;-2.80;99.90
21759;DHT22;11041;50.854;20.580;2022-12-17T15:13:46;-2.90;99.90
21759;DHT22;11041;50.854;20.580;2022-12-17T15:16:13;-3.00;99.90
21759;DHT22;11041;50.854;20.580;2022-12-17T15:18:40;-3.00;99.90
21759;DHT22;11041;50.854;20.580;2022-12-17T15:21:18;-3.10;99.90
21759;DHT22;11041;50.854;20.580;2022-12-17T15:23:52;-3.20;99.90
21759;DHT22;11041;50.854;20.580;2022-12-17T15:26:28;-3.30;99.90
21759;DHT22;11041;50.854;20.580;2022-12-17T15:28:54;-3.20;99.90
21759;DHT22;11041;50.854;20.580;2022-12-17T15:31:27;-3.30;99.90
21759;DHT22;11041;50.854;20.580;2022-12-17T15:33:59;-3.30;99.90
21759;DHT22;11041;50.854;20.580;2022-12-17T15:36:29;-3.30;99.90
21759;DHT22;11041;50.854;20.580;2022-12-17T15:39:04;-3.30;99.90
21759;DHT22;11041;50.854;20.580;2022-12-17T15:41:34;-3.50;99.90
21759;DHT22;11041;50.854;20.580;2022-12-17T15:44:21;-3.50;99.90
21759;DHT22;11041;50.854;20.580;2022-12-17T15:46:48;-3.40;99.90
21759;DHT22;11041;50.854;20.580;2022-12-17T15:49:14;-3.30;99.90
21759;DHT22;11041;50.854;20.580;2022-12-17T15:51:41;-3.30;99.90
21759;DHT22;11041;50.854;20.580;2022-12-17T15:54:07;-3.30;99.90
21759;DHT22;11041;50.854;20.580;2022-12-17T15:56:33;-3.40;99.90
21759;DHT22;11041;50.854;20.580;2022-12-17T15:59:02;-3.50;99.90
21759;DHT22;11041;50.854;20.580;2022-12-17T16:01:28;-3.40;99.90
21759;DHT22;11041;50.854;20.580;2022-12-17T16:03:55;-3.40;99.90
21759;DHT22;11041;50.854;20.580;2022-12-17T16:06:22;-3.50;99.90
21759;DHT22;11041;50.854;20.580;2022-12-17T16:08:49;-3.40;99.90
21759;DHT22;11041;50.854;20.580;2022-12-17T16:11:15;-3.40;99.90
21759;DHT22;11041;50.854;20.580;2022-12-17T16:13:42;-3.40;99.90
21759;DHT22;11041;50.854;20.580;2022-12-17T16:16:09;-3.50;99.90
21759;DHT22;11041;50.854;20.580;2022-12-17T16:18:36;-3.40;99.90
21759;DHT22;11041;50.854;20.580;2022-12-17T16:21:06;-3.20;99.90
21759;DHT22;11041;50.854;20.580;2022-12-17T16:23:34;-3.20;99.90
21759;DHT22;11041;50.854;20.580;2022-12-17T16:26:03;-3.10;99.90
21759;DHT22;11041;50.854;20.580;2022-12-17T16:28:31;-3.10;99.90
21759;DHT22;11041;50.854;20.580;2022-12-17T16:31:11;-3.10;99.90
21759;DHT22;11041;50.854;20.580;2022-12-17T16:33:41;-3.20;99.90
21759;DHT22;11041;50.854;20.580;2022-12-17T16:36:15;-3.20;99.90
21759;DHT22;11041;50.854;20.580;2022-12-17T16:38:46;-3.20;99.90
21759;DHT22;11041;50.854;20.580;2022-12-17T16:41:15;-3.30;99.90
21759;DHT22;11041;50.854;20.580;2022-12-17T16:43:43;-3.30;99.90
21759;DHT22;11041;50.854;20.580;2022-12-17T16:46:34;-3.40;99.90
21759;DHT22;11041;50.854;20.580;2022-12-17T16:49:20;-3.50;99.90
21759;DHT22;11041;50.854;20.580;2022-12-17T16:51:50;-3.50;99.90
21759;DHT22;11041;50.854;20.580;2022-12-17T16:54:20;-3.70;99.90
21759;DHT22;11041;50.854;20.580;2022-12-17T16:56:49;-3.90;99.90
21759;DHT22;11041;50.854;20.580;2022-12-17T16:59:17;-3.90;99.90
21759;DHT22;11041;50.854;20.580;2022-12-17T17:01:46;-4.00;99.90
21759;DHT22;11041;50.854;20.580;2022-12-17T17:04:16;-3.80;99.90
21759;DHT22;11041;50.854;20.580;2022-12-17T17:06:49;-3.80;99.90
21759;DHT22;11041;50.854;20.580;2022-12-17T17:09:17;-3.90;99.90
21759;DHT22;11041;50.854;20.580;2022-12-17T17:11:44;-3.90;99.90
21759;DHT22;11041;50.854;20.580;2022-12-17T17:14:12;-3.90;99.90
21759;DHT22;11041;50.854;20.580;2022-12-17T17:16:39;-4.00;99.90
21759;DHT22;11041;50.854;20.580;2022-12-17T17:19:05;-4.00;99.90
21759;DHT22;11041;50.854;20.580;2022-12-17T17:21:38;-4.00;99.90
21759;DHT22;11041;50.854;20.580;2022-12-17T17:24:12;-4.00;99.90
21759;DHT22;11041;50.854;20.580;2022-12-17T17:26:43;-4.00;99.90
21759;DHT22;11041;50.854;20.580;2022-12-17T17:29:10;-4.00;99.90
21759;DHT22;11041;50.854;20.580;2022-12-17T17:31:37;-4.00;99.90
21759;DHT22;11041;50.854;20.580;2022-12-17T17:34:12;-3.90;99.90
21759;DHT22;11041;50.854;20.580;2022-12-17T17:36:40;-3.80;99.90
21759;DHT22;11041;50.854;20.580;2022-12-17T17:39:07;-3.80;99.90
21759;DHT22;11041;50.854;20.580;2022-12-17T17:41:35;-4.00;99.90
21759;DHT22;11041;50.854;20.580;2022-12-17T17:44:08;-3.90;99.90
21759;DHT22;11041;50.854;20.580;2022-12-17T17:46:37;-3.80;99.90
21759;DHT22;11041;50.854;20.580;2022-12-17T17:49:05;-4.00;99.90
21759;DHT22;11041;50.854;20.580;2022-12-17T17:51:36;-4.00;99.90
21759;DHT22;11041;50.854;20.580;2022-12-17T17:54:06;-4.00;99.90
21759;DHT22;11041;50.854;20.580;2022-12-17T17:56:35;-4.00;99.90
21759;DHT22;11041;50.854;20.580;2022-12-17T17:59:06;-4.00;99.90
21759;DHT22;11041;50.854;20.580;2022-12-17T18:01:40;-4.00;99.90
21759;DHT22;11041;50.854;20.580;2022-12-17T18:04:10;-4.00;99.90
21759;DHT22;11041;50.854;20.580;2022-12-17T18:06:40;-4.10;99.90
21759;DHT22;11041;50.854;20.580;2022-12-17T18:09:08;-4.10;99.90
21759;DHT22;11041;50.854;20.580;2022-12-17T18:11:37;-4.10;99.90
21759;DHT22;11041;50.854;20.580;2022-12-17T18:14:06;-4.10;99.90
21759;DHT22;11041;50.854;20.580;2022-12-17T18:16:44;-4.10;99.90
21759;DHT22;11041;50.854;20.580;2022-12-17T18:19:17;-4.20;99.90
21759;DHT22;11041;50.854;20.580;2022-12-17T18:21:46;-4.10;99.90
21759;DHT22;11041;50.854;20.580;2022-12-17T18:24:21;-4.20;99.90
21759;DHT22;11041;50.854;20.580;2022-12-17T18:26:50;-4.10;99.90
21759;DHT22;11041;50.854;20.580;2022-12-17T18:29:20;-4.20;99.90
21759;DHT22;11041;50.854;20.580;2022-12-17T18:31:49;-4.20;99.90
21759;DHT22;11041;50.854;20.580;2022-12-17T18:34:17;-4.10;99.90
21759;DHT22;11041;50.854;20.580;2022-12-17T18:36:47;-4.00;99.90
21759;DHT22;11041;50.854;20.580;2022-12-17T18:39:21;-4.10;99.90
21759;DHT22;11041;50.854;20.580;2022-12-17T18:41:50;-4.10;99.90
21759;DHT22;11041;50.854;20.580;2022-12-17T18:44:38;-4.10;99.90
21759;DHT22;11041;50.854;20.580;2022-12-17T18:47:07;-4.00;99.90